< Cyclone 198912 1989 Season Cyclone 199001 >
Cyclone 198913 (UNNAMED)
General InformationDetailed Track InformationTrack Information on Google MapsList of All Images || ResourceGoogle EarthGE AnimationAtom FeedGeoJSON
Detalied Best Track Wind (Time Zone = UTC)
Year Month Day Hour Lat. Long. Wind (kt) Gust (kt) Direc. of Major Storm Axis Radius of Major Storm Axis (nm) Radius of Minor Storm Axis (nm) Direc. of Major Gale Axis Radius of Major Gale Axis (nm) Radius of Minor Gale Axis (nm) Image
1988 11 5 06 -8.3 99.5 23 -1 symmetric - - symmetric - - Image
1988 11 5 12 -8.3 99.7 23 -1 symmetric - - symmetric - - Image
1988 11 5 18 -8.6 99.7 23 -1 symmetric - - symmetric - - Image
1988 11 6 00 -8.6 99.5 23 -1 symmetric - - symmetric - - Image
1988 11 6 06 -8.0 99.3 23 -1 symmetric - - symmetric - - Image
1988 11 6 12 -7.4 99.2 23 -1 symmetric - - symmetric - - Image
1988 11 6 18 -7.2 99.3 23 -1 symmetric - - symmetric - - Image
1988 11 7 00 -7.3 99.1 23 -1 symmetric - - symmetric - - Image
1988 11 7 06 -7.2 98.2 23 -1 symmetric - - symmetric - - Image
1988 11 7 12 -7.1 97.6 23 -1 symmetric - - symmetric - - Image
1988 11 7 18 -7.0 97.3 27 -1 symmetric - - symmetric - - Image
1988 11 8 00 -7.0 96.8 33 -1 symmetric - - symmetric - - Image
1988 11 8 06 -6.8 96.3 43 -1 symmetric - - symmetric - - Image
1988 11 8 12 -6.8 95.9 47 -1 symmetric - - symmetric - - Image
1988 11 8 18 -6.8 95.4 53 -1 symmetric - - symmetric - - Image
1988 11 9 00 -6.8 94.9 53 -1 symmetric - - symmetric - - Image
1988 11 9 06 -6.8 94.5 53 -1 symmetric - - symmetric - - Image
1988 11 9 12 -6.6 94.1 53 -1 symmetric - - symmetric - - Image
1988 11 9 18 -6.4 93.6 53 -1 symmetric - - symmetric - - Image
1988 11 10 00 -6.2 93.0 53 -1 symmetric - - symmetric - - Image
1988 11 10 06 -6.0 92.6 53 -1 symmetric - - symmetric - - Image
1988 11 10 12 -6.0 92.2 53 -1 symmetric - - symmetric - - Image
1988 11 10 18 -6.0 91.8 53 -1 symmetric - - symmetric - - Image
1988 11 11 00 -6.0 91.2 53 -1 symmetric - - symmetric - - Image
1988 11 11 06 -6.1 90.6 53 -1 symmetric - - symmetric - - Image
1988 11 11 12 -6.3 90.1 53 -1 symmetric - - symmetric - - Image
1988 11 11 18 -6.4 89.3 56 -1 symmetric - - symmetric - - Image
1988 11 12 00 -6.6 88.4 60 -1 symmetric - - symmetric - - Image
1988 11 12 06 -7.0 87.4 60 -1 symmetric - - symmetric - - Image
1988 11 12 12 -7.2 86.6 60 -1 symmetric - - symmetric - - Image
1988 11 12 18 -7.5 85.9 60 -1 symmetric - - symmetric - - Image
1988 11 13 00 -7.8 85.3 60 -1 symmetric - - symmetric - - Image
1988 11 13 06 -8.4 84.6 60 -1 symmetric - - symmetric - - Image
1988 11 13 12 -9.1 83.7 60 -1 symmetric - - symmetric - - Image
1988 11 13 18 -9.6 82.6 60 -1 symmetric - - symmetric - - Image
1988 11 14 00 -10.0 81.1 60 -1 symmetric - - symmetric - - Image
1988 11 14 06 -10.2 79.8 66 -1 symmetric - - symmetric - - Image
1988 11 14 12 -10.3 78.9 70 -1 symmetric - - symmetric - - Image
1988 11 14 18 -10.5 78.2 76 -1 symmetric - - symmetric - - Image
1988 11 15 00 -10.9 77.1 80 -1 symmetric - - symmetric - - Image
1988 11 15 06 -11.4 75.9 84 -1 symmetric - - symmetric - - Image
1988 11 15 12 -12.0 75.0 84 -1 symmetric - - symmetric - - Image
1988 11 15 18 -12.5 74.1 84 -1 symmetric - - symmetric - - Image
1988 11 16 00 -12.8 73.4 89 -1 symmetric - - symmetric - - Image
1988 11 16 06 -13.3 72.4 93 -1 symmetric - - symmetric - - Image
1988 11 16 12 -13.7 71.8 93 -1 symmetric - - symmetric - - Image
1988 11 16 18 -14.0 71.4 84 -1 symmetric - - symmetric - - Image
1988 11 17 00 -14.3 71.0 84 -1 symmetric - - symmetric - - Image
1988 11 17 06 -14.6 70.4 84 -1 symmetric - - symmetric - - Image
1988 11 17 12 -15.0 69.8 89 -1 symmetric - - symmetric - - Image
1988 11 17 18 -15.3 69.4 93 -1 symmetric - - symmetric - - Image
1988 11 18 00 -15.6 68.9 84 -1 symmetric - - symmetric - - Image
1988 11 18 06 -15.8 68.6 76 -1 symmetric - - symmetric - - Image
1988 11 18 12 -16.2 68.3 80 -1 symmetric - - symmetric - - Image
1988 11 18 18 -16.6 68.1 84 -1 symmetric - - symmetric - - Image
1988 11 19 00 -17.0 67.7 76 -1 symmetric - - symmetric - - Image
1988 11 19 06 -17.6 67.2 60 -1 symmetric - - symmetric - - Image
1988 11 19 12 -17.8 66.6 47 -1 symmetric - - symmetric - - Image
1988 11 19 18 -18.1 66.2 43 -1 symmetric - - symmetric - - Image
1988 11 20 00 -18.3 65.8 37 -1 symmetric - - symmetric - - Image
1988 11 20 06 -18.4 65.6 33 -1 symmetric - - symmetric - - Image
1988 11 20 12 -18.4 65.4 27 -1 symmetric - - symmetric - - Image
< Cyclone 198912 1989 Season Cyclone 199001 >

Help